Accueil
METAR-TAF:

METAR-TAF

Aéroports :

Florennes, Belgique

Base aérienne de Florennes

latitude: 50-14N, longitude: 004-39E, altitude: 279 m

Observation

Le bulletin a été fait il y a 18 minutes, à 23:55 UTC
Vent 1 kt de direction variable
Température 16°C
Humidité 55%
Pression 1023 hPa
Visibilité 10 km ou plus

METAR: EBFS 202355Z AUTO VRB01KT 9999 BKN160/// BKN220/// 16/07 Q1023 BLU

Heure: 02:13 (00:13 UTC)

Prévision

Le bulletin a été fait il y a 8 heures et 32 minutes, à 15:41 UTC
Prévision valable du 19 à 19 UTC au 20 à 07 UTC
Vent 5 kt de sud
Visibilité 10 km ou plus
Nuages épars à une hauteur de 35000 ft
Evoluant progressivement
du 20 à 00 UTC au 20 à 02 UTC
Vent 5 kt de ouest/sud-ouest

TAF: EBFS 191541Z 1919/2007 19005KT 9999 NSW SCT350 BECMG 2000/2002 25005KT

Observations et prévisions météorologiques de plus de 4000 aéroports (messages METAR et TAF).

Les stations disponibles sont représentées par des disques jaunes et rouges sur la carte.

Passer la souris dessus pour voir le nom de la station.

Cliquer dessus pour voir les observations et prévisions météorologiques.

Pour changer de carte: cliquez sur les boutons verts avec une croix noire pour zoomer, sur le bouton vert avec un tiret pour effectuer un zoom arrière, ou sur les flèches vertes pour les cartes adjacentes.


METAR-TAF: